Terminal Aerodrome Forecast
Issued by NWS

Home | Current Version | Previous Version | Text Only | Print | Product List | Glossary On
Versions: 1 2 3 4 5 6 7 8 9 10 11 12 13 14 15 16 17 18 19 20
000
FTUS42 KFFC 271122
TAFPDK
TAF
KPDK 271122Z 2712/2812 29005KT P6SM BKN050
     FM271500 31010G15KT P6SM BKN050
     FM271800 32012G22KT P6SM SCT050
     FM280100 32007KT P6SM SCT250=

USA.gov is the U.S. government's official web portal to all federal, state and local government web resources and services.